KTHV/THV METAR and TAF weather

Enter ICAO airport designator
Station Type Date Time Source
KTHV METAR 2019/08/18 08:53 UTC NOAA

KTHV 180853Z AUTO 13003KT 9SM CLR 21/19 A2999 RMK AO2 SLP153 T02060194 51005


Station Type Date Time Source
KTHV Decoded METAR 2019/08/18 08:53 UTC NOAA

Station name not available
Aug 18, 2019 - 04:53 AM EDT / 2019.08.18 0853 UTC
Wind: from the SE (130 degrees) at 3 MPH (3 KT):0
Visibility: 9 mile(s):0
Sky conditions: clear
Temperature: 69.1 F (20.6 C)
Dew Point: 66.9 F (19.4 C)
Relative Humidity: 92%
Pressure (altimeter): 29.99 in. Hg (1015 hPa)
Pressure tendency: 0.01 inches (0.5 hPa) higher than three hours ago
ob: KTHV 180853Z AUTO 13003KT 9SM CLR 21/19 A2999 RMK AO2 SLP153 T02060194 51005
cycle: 9

Station Type Date Time Source
KTHV TAF UTC NOAA

Error!

Example: see airport list